Regional Weather

 

KMKL - Jackson, TN, USA
Distance from station: WNW 50mi, 81km
Updated: Wed, Oct-16-2019 11:53am CDT
Clear
Clear
 Wind from NNW
Wind: NNW 9 mph , 15 km/h
Temperature: 57°F , 14°C
Dew Point: 43°F , 6°C
Humidity: 59%
Barometer: 30.08 inHg , 1018.6 hPa
Clouds: Clear
Visibility: 10 miles , 16 km
2019/10/16 16:53 KMKL 161653Z 34008KT 10SM CLR 14/06 A3008 RMK AO2 SLP184 T01440056 $
KMEM - Memphis, TN, USA
Distance from station: W 108mi, 173km
Updated: Wed, Oct-16-2019 11:54am CDT
Few Clouds
Few Clouds
 Wind from NNW
Wind: NNW 7 mph , 11 km/h
Temperature: 59°F , 15°C
Dew Point: 41°F , 5°C
Humidity: 51%
Barometer: 30.10 inHg , 1019.3 hPa
Clouds: Few Clouds
Visibility: 10 miles , 16 km
Cloud details: Few Clouds 25000 ft
2019/10/16 16:54 KMEM 161654Z 33006KT 10SM FEW250 15/05 A3010 RMK AO2 SLP192 T01500050
 
KBNA - Nashville, TN, USA
Distance from station: NE 97mi, 157km
Updated: Wed, Oct-16-2019 11:53am CDT
Few Clouds
Few Clouds
 Wind from N
Wind: N 12 mph , 19 km/h
Temperature: 59°F , 15°C
Dew Point: 39°F , 4°C
Humidity: 48%
Barometer: 30.02 inHg , 1016.6 hPa
Clouds: Few Clouds
Visibility: 10 miles , 16 km
Cloud details: Few Clouds 2900 ft
Few Clouds 20000 ft
2019/10/16 16:53 KBNA 161653Z 35010KT 10SM R02L/2600VP6000FT FEW029 FEW200 15/04 A3002 RMK AO2 SLP161 T01500039
KCKV - Clarksville, TN, USA
Distance from station: NNE 99mi, 159km
Updated: Wed, Oct-16-2019 11:52am CDT
Clear
Clear
 Wind from NNW
Wind: NNW 14 mph , 22 km/h, Gust: 20 mph , 31 km/h
Temperature: 57°F , 14°C
Dew Point: 41°F , 5°C
Humidity: 55%
Barometer: 30.03 inHg , 1016.9 hPa
Clouds: Clear
Visibility: 10 miles , 16 km
2019/10/16 16:52 KCKV 161652Z AUTO 34012G17KT 10SM CLR 14/05 A3003 RMK AO2 SLP165 T01390050
 
KPAH - Paducah, KY, USA
Distance from station: NNW 128mi, 205km
Updated: Wed, Oct-16-2019 11:53am CDT
Clear
Clear
 Wind from N
Wind: N 15 mph , 24 km/h, Gust: 22 mph , 35 km/h
Temperature: 57°F , 14°C
Dew Point: 39°F , 4°C
Humidity: 51%
Barometer: 30.05 inHg , 1017.6 hPa
Clouds: Clear
Visibility: 10 miles , 16 km
2019/10/16 16:53 KPAH 161653Z 35013G19KT 10SM CLR 14/04 A3005 RMK AO2 SLP174 T01390039
KCHA - Chattanooga, TN, USA
Distance from station: E 165mi, 265km
Updated: Wed, Oct-16-2019 11:53am CDT
Mostly cloudy
Mostly cloudy
 Wind from NNW
Wind: NNW 9 mph , 15 km/h
Temperature: 64°F , 18°C
Dew Point: 46°F , 8°C
Humidity: 52%
Barometer: 29.94 inHg , 1013.9 hPa
Clouds: Mostly cloudy
Visibility: 10 miles , 16 km
Cloud details: Partly cloudy 3800 ft
Mostly cloudy 25000 ft
Mostly cloudy 30000 ft
2019/10/16 16:53 KCHA 161653Z 34008KT 10SM SCT038 BKN250 BKN300 18/08 A2994 RMK AO2 SLP133 T01780083
 
KTYS - Knoxville, TN, USA
Distance from station: E 234mi, 377km
Updated: Wed, Oct-16-2019 12:33pm CDT
Mostly cloudy
Mostly cloudy
 Wind from NNW
Wind: NNW 7 mph , 11 km/h
Temperature: 61°F , 16°C
Dew Point: 46°F , 8°C
Humidity: 59%
Barometer: 29.89 inHg , 1012.2 hPa
Clouds: Mostly cloudy
Visibility: 10 miles , 16 km
Cloud details: Partly cloudy 2800 ft
Mostly cloudy 3500 ft
Mostly cloudy 25000 ft
2019/10/16 17:33 KTYS 161733Z 33006KT 10SM SCT028 BKN035 BKN250 16/08 A2989 RMK AO2 T01560078
KLIT - Little Rock, AR, USA
Distance from station: W 240mi, 386km
Updated: Wed, Oct-16-2019 11:53am CDT
Partly cloudy
Partly cloudy
 Wind from N
Wind: N 6 mph , 9 km/h
Temperature: 57°F , 14°C
Dew Point: 39°F , 4°C
Humidity: 51%
Barometer: 30.17 inHg , 1021.7 hPa
Clouds: Partly cloudy
Visibility: 10 miles , 16 km
Cloud details: Partly cloudy 25000 ft
2019/10/16 16:53 KLIT 161653Z 35005KT 10SM SCT250 14/04 A3017 RMK AO2 SLP217 T01440039

Refresh Page for latest data.